createdAt,value
2022-12-06T00:01:06.627Z,12.70
2022-12-06T00:03:34.185Z,12.70
2022-12-06T00:06:02.930Z,19.73
2022-12-06T00:08:31.168Z,13.93
2022-12-06T00:11:04.636Z,14.47
2022-12-06T00:13:31.470Z,12.53
2022-12-06T00:16:00.932Z,12.87
2022-12-06T00:18:27.757Z,16.90
2022-12-06T00:20:54.633Z,16.20
2022-12-06T00:23:21.435Z,16.10
2022-12-06T00:25:49.661Z,13.97
2022-12-06T00:28:16.513Z,12.83
2022-12-06T00:30:43.322Z,13.13
2022-12-06T00:33:10.143Z,16.10
2022-12-06T00:35:36.961Z,15.90
2022-12-06T00:38:03.811Z,12.60
2022-12-06T00:40:30.593Z,10.70
2022-12-06T00:42:58.764Z,11.37
2022-12-06T00:45:25.604Z,13.87
2022-12-06T00:47:52.449Z,11.17
2022-12-06T00:50:19.228Z,12.00
2022-12-06T00:52:46.014Z,15.87
2022-12-06T00:55:12.837Z,11.33
2022-12-06T00:57:39.631Z,12.40
2022-12-06T01:00:09.311Z,12.70
2022-12-06T01:02:36.169Z,13.73
2022-12-06T01:05:03.253Z,14.23
2022-12-06T01:07:30.114Z,15.33
2022-12-06T01:09:57.378Z,14.70
2022-12-06T01:12:24.445Z,13.87
2022-12-06T01:14:51.198Z,13.47
2022-12-06T01:17:19.362Z,15.50
2022-12-06T01:19:46.076Z,11.37
2022-12-06T01:22:12.796Z,11.97
2022-12-06T01:24:39.508Z,14.10
2022-12-06T01:27:06.258Z,12.57
2022-12-06T01:29:33.322Z,14.57
2022-12-06T01:32:00.206Z,15.73
2022-12-06T01:34:28.282Z,9.50
2022-12-06T01:36:55.014Z,11.60
2022-12-06T01:39:21.889Z,13.33
2022-12-06T01:41:48.609Z,13.23
2022-12-06T01:44:38.955Z,12.33
2022-12-06T01:47:06.366Z,11.53
2022-12-06T01:49:35.429Z,13.43
2022-12-06T01:52:10.607Z,13.90
2022-12-06T01:54:37.523Z,10.60
2022-12-06T01:57:07.358Z,12.13
2022-12-06T01:59:34.722Z,16.27
2022-12-06T02:02:01.999Z,14.60
2022-12-06T02:04:30.465Z,13.37
2022-12-06T02:07:00.675Z,12.60
2022-12-06T02:09:29.422Z,14.80
2022-12-06T02:11:56.228Z,13.30
2022-12-06T02:14:27.022Z,16.97
2022-12-06T02:17:06.200Z,12.03
2022-12-06T02:20:05.291Z,13.10
2022-12-06T02:23:00.132Z,18.93
2022-12-06T02:25:52.369Z,13.83
2022-12-06T02:28:43.349Z,16.33
2022-12-06T02:31:15.564Z,13.87
2022-12-06T02:33:48.949Z,19.70
2022-12-06T02:36:21.109Z,16.07
2022-12-06T02:38:51.181Z,17.10
2022-12-06T02:41:23.961Z,16.87
2022-12-06T02:43:54.561Z,19.40
2022-12-06T02:46:25.255Z,19.80
2022-12-06T02:48:54.141Z,26.47
2022-12-06T02:51:22.159Z,16.93
2022-12-06T02:53:51.726Z,19.60
2022-12-06T02:56:19.212Z,25.20
2022-12-06T02:58:46.508Z,20.73
2022-12-06T03:01:15.140Z,21.90
2022-12-06T03:04:07.067Z,23.87
2022-12-06T03:06:56.702Z,27.27
2022-12-06T03:09:41.377Z,26.00
2022-12-06T03:12:13.821Z,19.13
2022-12-06T03:14:56.322Z,22.47
2022-12-06T03:17:32.463Z,22.63
2022-12-06T03:20:06.271Z,21.63
2022-12-06T03:22:39.850Z,19.10
2022-12-06T03:25:09.243Z,23.23
2022-12-06T03:27:38.289Z,25.43
2022-12-06T03:30:07.929Z,25.60
2022-12-06T03:32:37.214Z,23.40
2022-12-06T03:35:08.786Z,22.50
2022-12-06T03:37:38.312Z,18.60
2022-12-06T03:40:11.514Z,18.87
2022-12-06T03:42:38.681Z,18.23
2022-12-06T03:45:07.178Z,20.07
2022-12-06T03:47:37.994Z,20.43
2022-12-06T03:50:10.631Z,20.03
2022-12-06T03:52:38.814Z,21.17
2022-12-06T03:55:06.767Z,20.13
2022-12-06T03:57:33.857Z,15.17
2022-12-06T04:00:00.906Z,17.77
2022-12-06T04:02:27.941Z,16.03
2022-12-06T04:04:54.685Z,15.93
2022-12-06T04:07:22.860Z,17.17
2022-12-06T04:09:49.769Z,17.83
2022-12-06T04:12:16.619Z,17.57
2022-12-06T04:14:43.466Z,17.97
2022-12-06T04:17:10.188Z,14.40
2022-12-06T04:19:36.903Z,19.67
2022-12-06T04:22:03.693Z,21.50
2022-12-06T04:24:31.893Z,19.73
2022-12-06T04:26:58.634Z,15.97
2022-12-06T04:29:25.377Z,13.50
2022-12-06T04:31:52.252Z,18.60
2022-12-06T04:34:19.167Z,15.20
2022-12-06T04:36:45.980Z,13.77
2022-12-06T04:39:17.610Z,17.77
2022-12-06T04:41:48.700Z,12.90
2022-12-06T04:44:15.924Z,16.07
2022-12-06T04:46:42.775Z,15.67
2022-12-06T04:49:09.564Z,15.63
2022-12-06T04:51:36.429Z,12.80
2022-12-06T04:54:03.426Z,12.53
2022-12-06T04:56:30.163Z,18.60
2022-12-06T04:58:58.342Z,13.67
2022-12-06T05:01:25.157Z,17.17
2022-12-06T05:03:52.013Z,15.13
2022-12-06T05:06:18.818Z,11.97
2022-12-06T05:08:45.554Z,13.87
2022-12-06T05:11:12.509Z,16.60
2022-12-06T05:13:39.406Z,16.37
2022-12-06T05:16:09.679Z,13.40
2022-12-06T05:18:36.480Z,11.33
2022-12-06T05:21:04.655Z,13.70
2022-12-06T05:23:31.702Z,15.03
2022-12-06T05:25:59.720Z,14.27
2022-12-06T05:28:26.716Z,13.13
2022-12-06T05:30:53.842Z,12.37
2022-12-06T05:33:22.214Z,17.07
2022-12-06T05:35:49.304Z,15.63
2022-12-06T05:38:16.203Z,12.70
2022-12-06T05:40:43.885Z,15.23
2022-12-06T05:43:10.628Z,14.87
2022-12-06T05:45:37.974Z,15.00
2022-12-06T05:48:05.526Z,13.53
2022-12-06T05:50:34.260Z,21.23
2022-12-06T05:53:01.892Z,14.13
2022-12-06T05:55:28.956Z,12.47
2022-12-06T05:57:55.850Z,14.17
2022-12-06T06:00:22.789Z,12.90
2022-12-06T06:02:49.707Z,16.00
2022-12-06T06:05:16.821Z,13.77
2022-12-06T06:07:45.125Z,13.47
2022-12-06T06:10:12.223Z,16.83
2022-12-06T06:12:39.478Z,14.10
2022-12-06T06:15:07.033Z,13.03
2022-12-06T06:17:34.199Z,12.63
2022-12-06T06:20:01.799Z,16.00
2022-12-06T06:22:28.883Z,17.13
2022-12-06T06:24:57.025Z,12.93
2022-12-06T06:27:23.832Z,13.87
2022-12-06T06:29:50.736Z,13.77
2022-12-06T06:32:17.506Z,16.83
2022-12-06T06:34:44.336Z,12.20
2022-12-06T06:37:11.116Z,14.90
2022-12-06T06:39:37.887Z,12.37
2022-12-06T06:42:06.239Z,16.30
2022-12-06T06:44:33.047Z,12.03
2022-12-06T06:46:59.823Z,15.73
2022-12-06T06:49:26.571Z,15.17
2022-12-06T06:51:53.329Z,13.57
2022-12-06T06:54:20.243Z,11.57
2022-12-06T06:56:47.016Z,16.20
2022-12-06T06:59:15.126Z,12.30
2022-12-06T07:01:42.003Z,12.10
2022-12-06T07:04:08.829Z,11.37
2022-12-06T07:06:35.711Z,10.60
2022-12-06T07:09:02.453Z,11.50
2022-12-06T07:11:29.201Z,9.10
2022-12-06T07:13:56.882Z,10.93
2022-12-06T07:16:25.085Z,11.90
2022-12-06T07:18:51.838Z,8.00
2022-12-06T07:21:18.666Z,11.37
2022-12-06T07:23:45.493Z,9.97
2022-12-06T07:26:14.132Z,7.80
2022-12-06T07:28:42.911Z,8.90
2022-12-06T07:31:11.215Z,8.63
2022-12-06T07:33:40.122Z,7.93
2022-12-06T07:36:13.030Z,10.10
2022-12-06T07:38:40.695Z,9.30
2022-12-06T07:41:10.185Z,7.40
2022-12-06T07:43:36.920Z,10.53
2022-12-06T07:46:03.708Z,10.67
2022-12-06T07:48:30.497Z,8.57
2022-12-06T07:50:58.586Z,9.30
2022-12-06T07:53:25.346Z,9.10
2022-12-06T07:55:52.175Z,9.60
2022-12-06T07:58:18.908Z,6.87
2022-12-06T08:00:45.690Z,7.60
2022-12-06T08:03:12.526Z,9.30
2022-12-06T08:05:39.401Z,7.40
2022-12-06T08:08:07.606Z,10.43
2022-12-06T08:10:34.497Z,10.50
2022-12-06T08:13:01.333Z,10.43
2022-12-06T08:15:28.097Z,8.23
2022-12-06T08:17:54.852Z,5.80
2022-12-06T08:20:21.608Z,10.17
2022-12-06T08:22:48.382Z,9.43
2022-12-06T08:25:16.692Z,9.87
2022-12-06T08:27:43.467Z,8.30
2022-12-06T08:30:10.449Z,7.80
2022-12-06T08:32:37.314Z,17.30
2022-12-06T08:35:04.444Z,7.40
2022-12-06T08:37:31.321Z,7.20
2022-12-06T08:39:58.435Z,6.97
2022-12-06T08:42:26.786Z,8.40
2022-12-06T08:44:53.635Z,8.23
2022-12-06T08:47:20.451Z,10.70
2022-12-06T08:49:49.065Z,8.83
2022-12-06T08:52:15.830Z,8.27
2022-12-06T08:54:42.639Z,8.30
2022-12-06T08:57:09.436Z,7.17
2022-12-06T08:59:37.734Z,7.10
2022-12-06T09:02:04.602Z,6.67
2022-12-06T09:04:31.417Z,6.10
2022-12-06T09:06:58.375Z,6.93
2022-12-06T09:09:25.169Z,5.87
2022-12-06T09:11:52.016Z,5.10
2022-12-06T09:14:22.054Z,8.30
2022-12-06T09:16:51.700Z,6.23
2022-12-06T09:19:19.340Z,6.63
2022-12-06T09:21:46.112Z,9.17
2022-12-06T09:24:14.560Z,7.37
2022-12-06T09:26:41.843Z,5.70
2022-12-06T09:29:08.845Z,7.73
2022-12-06T09:31:35.769Z,6.50
2022-12-06T09:34:03.934Z,6.07
2022-12-06T09:36:31.016Z,5.43
2022-12-06T09:39:00.825Z,8.20
2022-12-06T09:41:57.590Z,5.00
2022-12-06T09:45:03.072Z,5.00
2022-12-06T09:47:43.879Z,10.73
2022-12-06T09:50:20.038Z,7.03
2022-12-06T09:53:16.607Z,8.67
2022-12-06T09:55:53.957Z,6.57
2022-12-06T09:58:32.471Z,5.93
2022-12-06T10:01:13.123Z,6.40
2022-12-06T10:03:54.602Z,5.93
2022-12-06T10:06:25.144Z,5.70
2022-12-06T10:09:05.971Z,6.10
2022-12-06T10:11:47.362Z,7.03
2022-12-06T10:14:26.675Z,5.63
2022-12-06T10:17:00.150Z,8.37
2022-12-06T10:19:36.862Z,7.03
2022-12-06T10:22:15.574Z,5.80
2022-12-06T10:24:55.781Z,7.57
2022-12-06T10:27:29.846Z,8.50
2022-12-06T10:29:58.949Z,6.03
2022-12-06T10:32:41.789Z,5.23
2022-12-06T10:35:17.601Z,6.00
2022-12-06T10:37:59.573Z,9.13
2022-12-06T10:40:31.231Z,4.10
2022-12-06T10:43:04.248Z,9.53
2022-12-06T10:45:37.556Z,5.07
2022-12-06T10:48:12.758Z,5.83
2022-12-06T10:50:41.146Z,5.17
2022-12-06T10:53:14.956Z,5.37
2022-12-06T10:55:46.580Z,4.03
2022-12-06T10:58:20.965Z,4.30
2022-12-06T11:00:56.017Z,5.00
2022-12-06T11:03:29.679Z,6.57
2022-12-06T11:05:59.723Z,5.27
2022-12-06T11:08:32.615Z,12.47
2022-12-06T11:11:00.797Z,8.70
2022-12-06T11:13:35.112Z,7.87
2022-12-06T11:16:09.283Z,7.57
2022-12-06T11:18:36.184Z,22.83
2022-12-06T11:21:12.103Z,4.20
2022-12-06T11:23:48.085Z,6.43
2022-12-06T11:26:23.981Z,4.60
2022-12-06T11:28:55.129Z,5.67
2022-12-06T11:31:26.232Z,5.90
2022-12-06T11:33:53.599Z,7.07
2022-12-06T11:36:21.324Z,6.07
2022-12-06T11:38:49.788Z,5.90
2022-12-06T11:41:22.861Z,3.10
2022-12-06T11:43:50.840Z,3.80
2022-12-06T11:46:17.710Z,3.20
2022-12-06T11:48:44.761Z,8.03
2022-12-06T11:51:17.735Z,4.27
2022-12-06T11:53:57.854Z,3.97
2022-12-06T11:56:26.886Z,5.83
2022-12-06T11:59:06.918Z,2.47
2022-12-06T12:01:39.767Z,3.60
2022-12-06T12:04:25.951Z,6.27
2022-12-06T12:06:58.098Z,5.23
2022-12-06T12:09:29.672Z,3.00
2022-12-06T12:12:01.857Z,2.43
2022-12-06T12:14:35.235Z,2.50
2022-12-06T12:17:03.401Z,3.60
2022-12-06T12:19:40.223Z,2.63
2022-12-06T12:22:27.843Z,3.40
2022-12-06T12:27:47.396Z,3.23
2022-12-06T12:30:38.013Z,2.63
2022-12-06T12:33:26.168Z,2.50
2022-12-06T12:36:10.380Z,3.53
2022-12-06T12:38:41.042Z,4.03
2022-12-06T12:41:23.925Z,2.50
2022-12-06T12:44:28.521Z,2.83
2022-12-06T12:46:52.334Z,3.50
2022-12-06T12:49:25.646Z,3.23
2022-12-06T12:51:52.712Z,4.40
2022-12-06T12:54:23.434Z,3.30
2022-12-06T12:56:52.493Z,3.90
2022-12-06T12:59:21.805Z,4.67
2022-12-06T13:01:54.324Z,3.27
2022-12-06T13:04:40.109Z,4.30
2022-12-06T13:07:14.377Z,5.10
2022-12-06T13:09:46.720Z,3.17
2022-12-06T13:12:19.484Z,2.77
2022-12-06T13:14:51.913Z,5.00
2022-12-06T13:17:20.339Z,2.87
2022-12-06T13:19:53.205Z,3.23
2022-12-06T13:22:24.939Z,5.40
2022-12-06T13:24:59.358Z,3.83
2022-12-06T13:27:30.990Z,7.87
2022-12-06T13:30:03.373Z,2.20
2022-12-06T13:32:35.962Z,3.77
2022-12-06T13:35:06.317Z,4.83
2022-12-06T13:37:43.133Z,4.30
2022-12-06T13:40:38.399Z,5.30
2022-12-06T13:43:43.921Z,10.70
2022-12-06T13:46:30.996Z,3.83
2022-12-06T13:49:19.349Z,5.30
2022-12-06T13:51:48.008Z,5.63
2022-12-06T13:54:36.020Z,4.30
2022-12-06T13:57:23.915Z,3.87
2022-12-06T13:59:52.166Z,8.67
2022-12-06T14:02:52.759Z,6.27
2022-12-06T14:08:23.864Z,6.50
2022-12-06T14:10:50.854Z,8.17
2022-12-06T14:13:20.263Z,6.57
2022-12-06T14:15:50.938Z,8.23
2022-12-06T14:18:23.927Z,7.23
2022-12-06T14:20:53.771Z,6.30
2022-12-06T14:23:26.633Z,6.80
2022-12-06T14:26:12.114Z,9.50
2022-12-06T14:28:39.000Z,5.57
2022-12-06T14:31:16.278Z,6.70
2022-12-06T14:33:43.173Z,5.67
2022-12-06T14:36:17.378Z,6.70
2022-12-06T14:38:51.770Z,6.10
2022-12-06T14:41:21.479Z,4.40
2022-12-06T14:43:48.284Z,4.73
2022-12-06T14:46:17.389Z,5.90
2022-12-06T14:48:50.750Z,3.93
2022-12-06T14:51:23.700Z,6.37
2022-12-06T14:53:51.000Z,6.63
2022-12-06T14:56:25.052Z,8.17
2022-12-06T14:58:52.643Z,6.70
2022-12-06T15:01:23.226Z,5.83
2022-12-06T15:04:04.179Z,6.53
2022-12-06T15:06:32.969Z,4.07
2022-12-06T15:09:12.534Z,8.30
2022-12-06T15:11:40.971Z,6.00
2022-12-06T15:14:15.858Z,5.40
2022-12-06T15:16:45.683Z,5.47
2022-12-06T15:19:14.668Z,4.37
2022-12-06T15:21:42.225Z,4.40
2022-12-06T15:24:18.071Z,3.83
2022-12-06T15:26:45.276Z,6.80
2022-12-06T15:29:12.434Z,7.47
2022-12-06T15:31:41.337Z,6.23
2022-12-06T15:34:21.860Z,5.10
2022-12-06T15:36:48.824Z,6.93
2022-12-06T15:39:15.948Z,10.10
2022-12-06T15:41:43.040Z,6.33
2022-12-06T15:44:13.835Z,4.57
2022-12-06T15:46:41.471Z,3.90
2022-12-06T15:49:09.752Z,4.23
2022-12-06T15:51:38.026Z,6.27
2022-12-06T15:54:04.968Z,8.30
2022-12-06T15:56:32.048Z,5.07
2022-12-06T15:58:58.933Z,6.53
2022-12-06T16:01:27.999Z,4.00
2022-12-06T16:03:56.404Z,6.93
2022-12-06T16:06:25.211Z,5.70
2022-12-06T16:08:53.838Z,5.03
2022-12-06T16:11:23.239Z,5.93
2022-12-06T16:13:50.492Z,5.00
2022-12-06T16:16:18.410Z,5.30
2022-12-06T16:18:47.102Z,4.40
2022-12-06T16:21:24.048Z,9.03
2022-12-06T16:26:41.925Z,6.00
2022-12-06T16:29:13.921Z,4.00
2022-12-06T16:31:40.834Z,3.57
2022-12-06T16:34:07.893Z,4.70
2022-12-06T16:36:51.242Z,5.37
2022-12-06T16:39:17.996Z,5.43
2022-12-06T16:41:46.115Z,3.97
2022-12-06T16:44:12.859Z,4.87
2022-12-06T16:46:39.848Z,5.40
2022-12-06T16:49:44.121Z,6.90
2022-12-06T16:52:00.336Z,6.10
2022-12-06T16:54:28.202Z,8.30
2022-12-06T16:56:56.287Z,7.80
2022-12-06T16:59:23.010Z,8.30
2022-12-06T17:01:51.005Z,9.47
2022-12-06T17:04:18.186Z,8.77
2022-12-06T17:06:45.249Z,10.33
2022-12-06T17:09:12.960Z,11.87
2022-12-06T17:11:40.388Z,12.20
2022-12-06T17:14:09.090Z,9.53
2022-12-06T17:16:36.926Z,11.90
2022-12-06T17:19:04.984Z,8.10
2022-12-06T17:21:32.296Z,11.47
2022-12-06T17:23:59.608Z,10.00
2022-12-06T17:26:26.375Z,9.33
2022-12-06T17:28:53.805Z,9.90
2022-12-06T17:31:22.447Z,11.30
2022-12-06T17:33:49.263Z,9.70
2022-12-06T17:36:17.644Z,10.70
2022-12-06T17:38:47.541Z,10.20
2022-12-06T17:41:15.590Z,11.20
2022-12-06T17:43:42.298Z,8.73
2022-12-06T17:46:09.250Z,10.67
2022-12-06T17:48:43.016Z,6.73
2022-12-06T17:51:11.246Z,6.30
2022-12-06T17:53:37.986Z,7.70
2022-12-06T17:56:24.678Z,8.80
2022-12-06T17:58:53.029Z,7.73
2022-12-06T18:01:20.103Z,8.37
2022-12-06T18:03:50.693Z,13.30
2022-12-06T18:06:17.568Z,11.53
2022-12-06T18:08:44.277Z,14.63
2022-12-06T18:11:11.024Z,13.97
2022-12-06T18:13:37.760Z,14.57
2022-12-06T18:16:13.468Z,13.77
2022-12-06T18:18:40.362Z,11.93
2022-12-06T18:21:08.773Z,15.30
2022-12-06T18:23:40.758Z,14.27
2022-12-06T18:26:13.445Z,13.43
2022-12-06T18:28:40.380Z,13.53
2022-12-06T18:31:07.574Z,13.17
2022-12-06T18:33:36.082Z,13.00
2022-12-06T18:36:04.044Z,15.90
2022-12-06T18:38:32.574Z,13.03
2022-12-06T18:41:03.135Z,15.07
2022-12-06T18:43:29.878Z,13.50
2022-12-06T18:46:00.233Z,11.57
2022-12-06T18:48:27.306Z,13.40
2022-12-06T18:50:54.596Z,13.20
2022-12-06T18:53:21.451Z,17.43
2022-12-06T18:55:49.772Z,12.03
2022-12-06T18:58:16.668Z,13.63
2022-12-06T19:00:43.841Z,11.20
2022-12-06T19:03:10.724Z,11.23
2022-12-06T19:06:01.272Z,12.80
2022-12-06T19:08:24.211Z,10.90
2022-12-06T19:10:52.307Z,13.13
2022-12-06T19:13:19.171Z,11.73
2022-12-06T19:15:45.906Z,13.77
2022-12-06T19:18:12.766Z,12.73
2022-12-06T19:20:40.706Z,10.10
2022-12-06T19:23:10.121Z,13.53
2022-12-06T19:25:36.844Z,9.57
2022-12-06T19:28:06.323Z,11.50
2022-12-06T19:30:33.233Z,10.53
2022-12-06T19:33:00.031Z,8.47
2022-12-06T19:35:26.830Z,8.60
2022-12-06T19:37:53.594Z,9.70
2022-12-06T19:40:20.354Z,8.87
2022-12-06T19:42:47.059Z,10.20
2022-12-06T19:45:15.183Z,8.33
2022-12-06T19:47:41.902Z,8.67
2022-12-06T19:50:09.663Z,9.10
2022-12-06T19:52:36.382Z,10.60
2022-12-06T19:55:03.399Z,9.33
2022-12-06T19:57:30.218Z,9.30
2022-12-06T19:59:57.196Z,9.10
2022-12-06T20:02:26.758Z,9.63
2022-12-06T20:04:53.567Z,8.63
2022-12-06T20:07:21.388Z,8.13
2022-12-06T20:09:48.127Z,8.43
2022-12-06T20:12:14.980Z,7.80
2022-12-06T20:14:43.702Z,9.10
2022-12-06T20:17:12.263Z,8.63
2022-12-06T20:19:40.977Z,8.47
2022-12-06T20:22:07.684Z,7.90
2022-12-06T20:24:34.445Z,10.77
2022-12-06T20:27:01.623Z,7.07
2022-12-06T20:29:28.411Z,8.03
2022-12-06T20:31:56.549Z,7.57
2022-12-06T20:34:23.689Z,7.90
2022-12-06T20:36:51.771Z,7.90
2022-12-06T20:39:21.524Z,8.40
2022-12-06T20:41:49.489Z,16.53
2022-12-06T20:44:16.960Z,9.97
2022-12-06T20:46:44.567Z,7.17
2022-12-06T20:49:11.312Z,8.47
2022-12-06T20:51:38.063Z,8.40
2022-12-06T20:54:07.198Z,7.57
2022-12-06T20:56:35.972Z,7.10
2022-12-06T20:59:04.270Z,7.20
2022-12-06T21:01:33.832Z,6.50
2022-12-06T21:04:00.710Z,6.47
2022-12-06T21:06:27.669Z,6.00
2022-12-06T21:08:54.863Z,8.80
2022-12-06T21:11:24.431Z,5.87
2022-12-06T21:13:52.013Z,6.90
2022-12-06T21:16:20.954Z,5.00
2022-12-06T21:18:47.875Z,7.40
2022-12-06T21:21:21.203Z,5.30
2022-12-06T21:23:47.980Z,5.70
2022-12-06T21:26:14.683Z,6.67
2022-12-06T21:28:42.941Z,6.13
2022-12-06T21:31:09.740Z,4.63
2022-12-06T21:33:36.707Z,5.70
2022-12-06T21:36:04.915Z,5.53
2022-12-06T21:38:32.310Z,10.40
2022-12-06T21:41:03.948Z,11.57
2022-12-06T21:43:30.766Z,10.90
2022-12-06T21:46:03.030Z,9.67
2022-12-06T21:48:29.899Z,8.83
2022-12-06T21:51:00.636Z,6.30
2022-12-06T21:53:27.378Z,6.20
2022-12-06T21:55:54.235Z,7.50
2022-12-06T21:58:20.957Z,4.33
2022-12-06T22:00:47.714Z,11.20
2022-12-06T22:03:22.491Z,3.83
2022-12-06T22:05:49.833Z,5.93
2022-12-06T22:08:16.701Z,6.40
2022-12-06T22:10:43.514Z,6.47
2022-12-06T22:13:10.418Z,9.90
2022-12-06T22:15:37.520Z,6.77
2022-12-06T22:18:04.820Z,9.30
2022-12-06T22:20:33.029Z,8.23
2022-12-06T22:23:00.300Z,8.93
2022-12-06T22:25:27.212Z,8.90
2022-12-06T22:27:54.032Z,7.63
2022-12-06T22:30:21.529Z,7.70
2022-12-06T22:32:48.304Z,10.00
2022-12-06T22:35:15.370Z,7.97
2022-12-06T22:37:43.522Z,7.93
2022-12-06T22:40:11.135Z,6.97
2022-12-06T22:42:38.206Z,9.40
2022-12-06T22:45:05.943Z,10.80
2022-12-06T22:47:32.702Z,12.50
2022-12-06T22:49:59.643Z,9.90
2022-12-06T22:52:26.603Z,10.67
2022-12-06T22:54:54.696Z,11.93
2022-12-06T22:57:21.472Z,11.40
2022-12-06T22:59:48.249Z,12.90
2022-12-06T23:02:15.116Z,8.30
2022-12-06T23:04:42.062Z,10.20
2022-12-06T23:07:09.629Z,13.30
2022-12-06T23:09:36.491Z,13.23
2022-12-06T23:12:05.089Z,15.07
2022-12-06T23:14:31.850Z,13.40
2022-12-06T23:16:58.663Z,12.33
2022-12-06T23:19:25.453Z,12.20
2022-12-06T23:21:52.236Z,14.90
2022-12-06T23:24:19.001Z,12.27
2022-12-06T23:26:51.839Z,12.00
2022-12-06T23:29:22.822Z,13.30
2022-12-06T23:31:49.650Z,14.80
2022-12-06T23:34:18.699Z,18.63
2022-12-06T23:36:45.526Z,17.53
2022-12-06T23:39:12.755Z,14.57
2022-12-06T23:41:39.821Z,17.13
2022-12-06T23:44:07.231Z,15.83
2022-12-06T23:46:37.204Z,11.83
2022-12-06T23:49:04.942Z,15.40
2022-12-06T23:51:33.613Z,21.77
2022-12-06T23:54:01.960Z,18.27
2022-12-06T23:56:30.998Z,16.63
2022-12-06T23:58:58.409Z,18.10
